METAR Data
IDs: Format: Raw Decoded Include TAF

Data at: 2220 UTC 10 May 2021

K04V 102215Z AUTO 34009KT 10SM SCT047 SCT065 OVC090 12/M04 A2994 RMK AO2
K04V 102155Z AUTO 32016G20KT 10SM -RA OVC090 12/M03 A2993 RMK AO2
K04V 102135Z AUTO 33018G22KT 10SM OVC100 13/M05 A2993 RMK AO2
K04V 102115Z AUTO 33011G16KT 10SM OVC100 14/M05 A2993 RMK AO2
K04V 102055Z AUTO 32010G25KT 10SM BKN100 14/M06 A2993 RMK AO2
K04V 102035Z AUTO 35014G24KT 10SM SCT080 SCT110 16/M06 A2993 RMK AO2
K04V 102015Z AUTO 29016G23KT 10SM BKN100 15/M08 A2992 RMK AO2
K04V 101955Z AUTO 30008KT 282V342 10SM BKN110 15/M05 A2992 RMK AO2
K04V 101935Z AUTO 34008KT 10SM BKN100 13/M05 A2993 RMK AO2
K04V 101915Z AUTO 36010G18KT 10SM BKN110 13/M06 A2993 RMK AO2
K04V 101855Z AUTO 36009KT 10SM BKN110 13/M05 A2994 RMK AO2
K04V 101835Z AUTO 34005KT 10SM BKN110 13/M05 A2995 RMK AO2
K04V 101815Z AUTO 04005KT 10SM SCT110 13/M04 A2995 RMK AO2
K04V 101755Z AUTO 02004KT 10SM SCT080 SCT100 BKN110 13/M03 A2996 RMK AO2 LTG DSNT N
K04V 101735Z AUTO 07004KT 10SM BKN090 OVC110 11/M03 A2997 RMK AO2
K04V 101715Z AUTO 06007KT 10SM BKN090 OVC120 11/M03 A2997 RMK AO2
K04V 101655Z AUTO 15004KT 10SM BKN090 BKN120 10/M03 A2999 RMK AO2
K04V 101635Z AUTO 16010KT 10SM BKN100 BKN120 10/M03 A3000 RMK AO2
K04V 101615Z AUTO 17007KT 10SM OVC100 10/M02 A3000 RMK AO2
K04V 101555Z AUTO 14007KT 122V182 10SM BKN100 10/M02 A3000 RMK AO2
K04V 101535Z AUTO 18009KT 10SM SCT080 09/M02 A3001 RMK AO2
K04V 101515Z AUTO 15008KT 10SM OVC090 08/M01 A3002 RMK AO2
K04V 101455Z AUTO 12005KT 10SM SCT090 SCT120 07/M02 A3002 RMK AO2
K04V 101435Z AUTO 14003KT 10SM CLR 07/M02 A3003 RMK AO2
K04V 101415Z AUTO 16003KT 10SM CLR 07/M01 A3004 RMK AO2
K04V 101355Z AUTO 00000KT 10SM CLR 06/M01 A3005 RMK AO2
K04V 101335Z AUTO 00000KT 10SM CLR 05/M02 A3005 RMK AO2
K04V 101315Z AUTO 00000KT 10SM CLR 03/M02 A3005 RMK AO2
K04V 101255Z AUTO 00000KT 10SM CLR 03/M02 A3005 RMK AO2
K04V 101235Z AUTO 00000KT 10SM SCT120 02/M03 A3005 RMK AO2
K04V 101215Z AUTO 00000KT 10SM BKN110 03/M03 A3005 RMK AO2
K04V 101155Z AUTO 00000KT 10SM BKN120 02/M03 A3005 RMK AO2
K04V 101135Z AUTO 00000KT 10SM SCT100 03/M02 A3005 RMK AO2
K04V 101115Z AUTO 00000KT 10SM OVC100 04/M02 A3006 RMK AO2
K04V 101055Z AUTO 34004KT 10SM SCT070 BKN110 05/M02 A3005 RMK AO2
K04V 101035Z AUTO 02003KT 10SM SCT065 BKN075 BKN110 05/M02 A3005 RMK AO2
K04V 101015Z AUTO 33008KT 10SM SCT065 OVC075 06/M03 A3006 RMK AO2
K04V 100955Z AUTO 33007KT 10SM BKN075 OVC085 06/M03 A3006 RMK AO2
K04V 100935Z AUTO 21005KT 10SM BKN080 OVC085 06/M04 A3006 RMK AO2
K04V 100915Z AUTO 31004KT 10SM SCT080 OVC090 05/M04 A3006 RMK AO2
K04V 100855Z AUTO 31005KT 10SM OVC110 05/M04 A3005 RMK AO2
K04V 100835Z AUTO 31006KT 10SM BKN110 05/M05 A3005 RMK AO2
K04V 100815Z AUTO 34009KT 10SM BKN120 05/M05 A3005 RMK AO2
K04V 100755Z AUTO 32008KT 10SM SCT120 05/M05 A3004 RMK AO2
K04V 100735Z AUTO 33006KT 10SM SCT110 05/M05 A3004 RMK AO2
K04V 100715Z AUTO 34010KT 10SM BKN120 05/M05 A3005 RMK AO2 LTG DSNT SE
K04V 100655Z AUTO 34004KT 10SM SCT110 05/M05 A3005 RMK AO2 LTG DSNT SE
K04V 100635Z AUTO 31005KT 10SM CLR 05/M05 A3005 RMK AO2
K04V 100615Z AUTO 29003KT 10SM CLR 05/M06 A3004 RMK AO2
K04V 100555Z AUTO 30005KT 10SM CLR 06/M06 A3004 RMK AO2
K04V 100535Z AUTO 30006KT 10SM CLR 05/M06 A3004 RMK AO2
K04V 100515Z AUTO 32008KT 10SM CLR 06/M06 A3004 RMK AO2 LTG DSNT SE
K04V 100455Z AUTO 33012KT 10SM CLR 06/M06 A3004 RMK AO2
K04V 100435Z AUTO 33012KT 10SM SCT110 07/M06 A3005 RMK AO2
K04V 100415Z AUTO 31011KT 10SM CLR 07/M07 A3005 RMK AO2
K04V 100355Z AUTO 32010KT 10SM SCT110 07/M07 A3005 RMK AO2
K04V 100335Z AUTO 32009KT 10SM SCT110 07/M07 A3005 RMK AO2
K04V 100315Z AUTO 35010KT 10SM SCT110 07/M08 A3004 RMK AO2
K04V 100255Z AUTO 34011KT 10SM CLR 07/M06 A3003 RMK AO2
K04V 100235Z AUTO 31015G18KT 10SM CLR 08/M06 A3003 RMK AO2
K04V 100215Z AUTO 31010KT 10SM SCT120 08/M06 A3003 RMK AO2
K04V 100155Z AUTO 30012KT 10SM CLR 08/M06 A3003 RMK AO2
K04V 100135Z AUTO 32016G22KT 10SM SCT070 SCT080 10/M07 A3003 RMK AO2
K04V 100115Z AUTO 31018G25KT 10SM SCT070 OVC080 11/M08 A3002 RMK AO2
K04V 100055Z AUTO 31021G28KT 10SM SCT070 BKN090 BKN120 12/M09 A3000 RMK AO2
K04V 100035Z AUTO 29010KT 10SM BKN110 12/M09 A2998 RMK AO2
K04V 100015Z AUTO 32011G18KT 282V342 10SM SCT110 13/M08 A2998 RMK AO2
K04V 092355Z AUTO 31014G19KT 10SM CLR 13/M08 A2998 RMK AO2
K04V 092335Z AUTO 31014G19KT 10SM CLR 14/M08 A2998 RMK AO2
K04V 092315Z AUTO 28014G18KT 10SM SCT060 SCT075 BKN120 14/M07 A2998 RMK AO2
K04V 092255Z AUTO 00000KT 10SM SCT060 OVC090 12/M10 A2998 RMK AO2
K04V 092235Z AUTO 29006G20KT 10SM BKN085 BKN120 12/M10 A2998 RMK AO2
K04V 092215Z AUTO 33017G21KT 10SM SCT080 BKN095 BKN120 12/M10 A2998 RMK AO2
K04V 092155Z AUTO 33015G23KT 10SM SCT075 BKN090 BKN120 13/M10 A2999 RMK AO2
K04V 092135Z AUTO 32022G27KT 10SM SCT100 BKN120 14/M10 A2999 RMK AO2
K04V 092115Z AUTO 31016G30KT 10SM BKN110 15/M10 A2998 RMK AO2
K04V 092055Z AUTO 29016G24KT 10SM OVC095 14/M11 A2998 RMK AO2
K04V 092035Z AUTO 29020G24KT 10SM SCT095 OVC120 14/M11 A2998 RMK AO2
K04V 092015Z AUTO 30018G22KT 10SM SCT075 BKN085 BKN120 13/M11 A2997 RMK AO2
K04V 091955Z AUTO 34005G35KT 10SM SCT080 BKN110 12/M11 A2998 RMK AO2
K04V 091935Z AUTO 34012G15KT 10SM SCT070 OVC100 13/M13 A2998 RMK AO2
K04V 091915Z AUTO 34014G21KT 10SM SCT090 OVC110 15/M12 A2999 RMK AO2
K04V 091855Z AUTO 15006KT 10SM SCT110 14/M10 A2998 RMK AO2
K04V 091835Z AUTO 18009G16KT 10SM SCT090 SCT110 13/M08 A2999 RMK AO2
K04V 091815Z AUTO 23008KT 10SM BKN090 BKN120 13/M08 A3000 RMK AO2
K04V 091755Z AUTO 17007KT 10SM SCT120 13/M07 A3000 RMK AO2
K04V 091735Z AUTO 14008KT 122V182 10SM CLR 13/M07 A3001 RMK AO2
K04V 091715Z AUTO 16006KT 102V182 10SM CLR 12/M07 A3002 RMK AO2
K04V 091655Z AUTO 21003KT 10SM CLR 11/M10 A3003 RMK AO2
K04V 091635Z AUTO 28004KT 10SM CLR 11/M09 A3003 RMK AO2
K04V 091615Z AUTO 00000KT 10SM CLR 11/M10 A3003 RMK AO2
K04V 091555Z AUTO 28005KT 10SM CLR 11/M12 A3004 RMK AO2
K04V 091535Z AUTO 00000KT 10SM CLR 10/M13 A3004 RMK AO2
K04V 091515Z AUTO 30006KT 10SM CLR 10/M12 A3005 RMK AO2
K04V 091455Z AUTO 32008KT 10SM CLR 08/M11 A3005 RMK AO2
K04V 091435Z AUTO 30008KT 10SM CLR 08/M10 A3005 RMK AO2
K04V 091415Z AUTO 31010KT 10SM CLR 07/M10 A3006 RMK AO2
K04V 091355Z AUTO 31010KT 10SM CLR 05/M09 A3005 RMK AO2
K04V 091335Z AUTO 30011KT 10SM CLR 03/M08 A3005 RMK AO2
K04V 091315Z AUTO 31008KT 10SM CLR 02/M08 A3005 RMK AO2
K04V 091255Z AUTO 32011KT 10SM CLR 01/M07 A3005 RMK AO2
K04V 091235Z AUTO 31012KT 10SM CLR 01/M08 A3004 RMK AO2
K04V 091215Z AUTO 31012KT 10SM CLR 01/M08 A3004 RMK AO2
K04V 091155Z AUTO 31013KT 10SM CLR 01/M09 A3003 RMK AO2
K04V 091135Z AUTO 30017KT 10SM CLR 01/M08 A3003 RMK AO2
K04V 091115Z AUTO 30014KT 10SM CLR 01/M08 A3003 RMK AO2
K04V 091055Z AUTO 30008KT 10SM CLR 00/M08 A3003 RMK AO2
K04V 091035Z AUTO 35010KT 10SM CLR 03/M10 A3003 RMK AO2